createdAt,value
2023-01-31T00:01:03.062Z,1.67
2023-01-31T00:04:21.067Z,1.63
2023-01-31T00:07:37.480Z,1.60
2023-01-31T00:10:54.046Z,1.62
2023-01-31T00:14:11.914Z,1.52
2023-01-31T00:17:31.061Z,1.61
2023-01-31T00:20:47.268Z,1.60
2023-01-31T00:24:06.453Z,1.59
2023-01-31T00:27:22.839Z,1.58
2023-01-31T00:30:41.229Z,1.57
2023-01-31T00:34:01.114Z,1.48
2023-01-31T00:37:17.366Z,1.49
2023-01-31T00:40:33.809Z,1.39
2023-01-31T00:43:50.025Z,1.39
2023-01-31T00:47:06.546Z,1.35
2023-01-31T00:50:26.585Z,1.32
2023-01-31T00:53:44.149Z,1.33
2023-01-31T00:57:00.532Z,1.34
2023-01-31T01:00:20.539Z,1.31
2023-01-31T01:03:37.370Z,1.37
2023-01-31T01:06:53.728Z,1.36
2023-01-31T01:10:10.453Z,1.36
2023-01-31T01:13:26.590Z,1.33
2023-01-31T01:16:45.880Z,1.27
2023-01-31T01:20:03.981Z,1.19
2023-01-31T01:23:23.429Z,1.24
2023-01-31T01:26:41.931Z,1.10
2023-01-31T01:29:59.055Z,1.23
2023-01-31T01:33:15.761Z,1.20
2023-01-31T01:36:32.905Z,1.21
2023-01-31T01:39:49.570Z,1.25
2023-01-31T01:43:06.093Z,1.23
2023-01-31T01:46:29.353Z,1.22
2023-01-31T01:49:47.579Z,1.19
2023-01-31T01:53:07.311Z,1.26
2023-01-31T01:56:30.284Z,1.29
2023-01-31T01:59:50.848Z,1.29
2023-01-31T02:03:12.134Z,1.31
2023-01-31T02:06:29.469Z,1.27
2023-01-31T02:09:52.589Z,1.24
2023-01-31T02:13:09.124Z,1.32
2023-01-31T02:16:25.968Z,1.27
2023-01-31T02:19:47.822Z,1.33
2023-01-31T02:23:21.318Z,1.31
2023-01-31T02:27:24.308Z,1.35
2023-01-31T02:31:18.227Z,1.34
2023-01-31T02:34:42.619Z,1.40
2023-01-31T02:38:06.899Z,1.40
2023-01-31T02:41:29.880Z,1.47
2023-01-31T02:45:05.912Z,1.41
2023-01-31T02:48:31.627Z,1.44
2023-01-31T02:51:55.219Z,1.53
2023-01-31T02:55:34.194Z,1.56
2023-01-31T02:58:55.453Z,1.52
2023-01-31T03:02:13.704Z,1.55
2023-01-31T03:05:31.127Z,1.61
2023-01-31T03:08:49.681Z,1.58
2023-01-31T03:12:30.003Z,1.64
2023-01-31T03:16:08.372Z,1.66
2023-01-31T03:19:29.516Z,1.70
2023-01-31T03:22:49.962Z,1.67
2023-01-31T03:26:09.885Z,1.67
2023-01-31T03:29:26.467Z,1.74
2023-01-31T03:32:48.152Z,1.74
2023-01-31T03:36:10.937Z,1.76
2023-01-31T03:39:35.329Z,1.81
2023-01-31T03:42:58.355Z,1.79
2023-01-31T03:46:21.630Z,1.78
2023-01-31T03:49:42.613Z,1.81
2023-01-31T03:53:02.799Z,1.85
2023-01-31T03:56:23.331Z,1.81
2023-01-31T03:59:43.921Z,1.77
2023-01-31T04:03:04.608Z,1.80
2023-01-31T04:06:22.887Z,1.74
2023-01-31T04:09:39.457Z,1.78
2023-01-31T04:12:56.041Z,1.83
2023-01-31T04:16:14.053Z,1.84
2023-01-31T04:19:33.607Z,1.78
2023-01-31T04:22:49.862Z,1.81
2023-01-31T04:26:05.988Z,1.81
2023-01-31T04:29:22.557Z,1.80
2023-01-31T04:32:39.937Z,1.76
2023-01-31T04:35:57.749Z,1.77
2023-01-31T04:39:17.739Z,1.74
2023-01-31T04:42:34.278Z,1.71
2023-01-31T04:45:52.179Z,1.72
2023-01-31T04:49:09.015Z,1.66
2023-01-31T04:52:25.114Z,1.60
2023-01-31T04:55:41.724Z,1.65
2023-01-31T04:58:58.055Z,1.60
2023-01-31T05:02:15.933Z,1.60
2023-01-31T05:05:35.291Z,1.59
2023-01-31T05:08:52.966Z,1.56
2023-01-31T05:12:10.281Z,1.47
2023-01-31T05:15:27.865Z,1.54
2023-01-31T05:18:45.557Z,1.47
2023-01-31T05:22:02.704Z,1.47
2023-01-31T05:25:20.526Z,1.48
2023-01-31T05:28:37.370Z,1.44
2023-01-31T05:31:54.230Z,1.39
2023-01-31T05:35:11.141Z,1.40
2023-01-31T05:38:27.310Z,1.40
2023-01-31T05:41:44.005Z,1.42
2023-01-31T05:45:00.167Z,1.41
2023-01-31T05:48:17.158Z,1.40
2023-01-31T05:51:33.426Z,1.37
2023-01-31T05:54:52.142Z,1.38
2023-01-31T05:58:08.674Z,1.42
2023-01-31T06:01:25.048Z,1.45
2023-01-31T06:04:43.020Z,1.43
2023-01-31T06:07:59.508Z,1.42
2023-01-31T06:11:19.920Z,1.43
2023-01-31T06:14:36.319Z,1.45
2023-01-31T06:17:52.464Z,1.47
2023-01-31T06:21:12.871Z,1.47
2023-01-31T06:24:29.271Z,1.45
2023-01-31T06:27:46.277Z,1.48
2023-01-31T06:31:02.541Z,1.49
2023-01-31T06:34:18.980Z,1.43
2023-01-31T06:37:35.719Z,1.50
2023-01-31T06:40:52.374Z,1.48
2023-01-31T06:44:08.687Z,1.49
2023-01-31T06:47:25.231Z,1.47
2023-01-31T06:50:42.802Z,1.32
2023-01-31T06:53:59.239Z,1.36
2023-01-31T06:57:15.483Z,1.40
2023-01-31T07:00:32.840Z,1.38
2023-01-31T07:03:52.987Z,1.41
2023-01-31T07:07:09.334Z,1.43
2023-01-31T07:10:27.331Z,1.34
2023-01-31T07:13:43.724Z,1.37
2023-01-31T07:17:00.330Z,1.37
2023-01-31T07:20:20.298Z,1.44
2023-01-31T07:23:36.474Z,1.46
2023-01-31T07:26:53.526Z,1.44
2023-01-31T07:30:10.279Z,1.50
2023-01-31T07:33:27.248Z,1.57
2023-01-31T07:36:43.790Z,1.56
2023-01-31T07:40:00.207Z,1.58
2023-01-31T07:43:16.906Z,1.59
2023-01-31T07:46:33.504Z,1.51
2023-01-31T07:49:51.261Z,1.60
2023-01-31T07:53:09.071Z,1.61
2023-01-31T07:56:27.615Z,1.57
2023-01-31T07:59:43.922Z,1.57
2023-01-31T08:03:14.341Z,1.60
2023-01-31T08:06:33.241Z,1.63
2023-01-31T08:09:50.984Z,1.65
2023-01-31T08:13:07.477Z,1.68
2023-01-31T08:16:26.868Z,1.71
2023-01-31T08:19:41.253Z,1.72
2023-01-31T08:22:57.758Z,1.68
2023-01-31T08:26:20.143Z,1.78
2023-01-31T08:29:36.789Z,1.79
2023-01-31T08:32:53.662Z,1.85
2023-01-31T08:36:19.918Z,1.85
2023-01-31T08:39:37.352Z,1.87
2023-01-31T08:43:01.400Z,1.76
2023-01-31T08:46:18.003Z,1.81
2023-01-31T08:49:36.307Z,1.77
2023-01-31T08:52:54.249Z,1.82
2023-01-31T08:56:14.251Z,1.91
2023-01-31T08:59:31.284Z,1.95
2023-01-31T09:02:51.575Z,2.01
2023-01-31T09:06:11.907Z,2.04
2023-01-31T09:09:30.196Z,2.09
2023-01-31T09:12:46.667Z,2.08
2023-01-31T09:16:11.130Z,2.16
2023-01-31T09:19:29.023Z,2.23
2023-01-31T09:22:51.055Z,2.31
2023-01-31T09:26:08.120Z,2.21
2023-01-31T09:29:25.084Z,2.22
2023-01-31T09:32:42.636Z,2.29
2023-01-31T09:36:08.835Z,2.26
2023-01-31T09:39:25.551Z,2.34
2023-01-31T09:42:49.195Z,2.33
2023-01-31T09:46:09.872Z,2.37
2023-01-31T09:49:34.061Z,2.34
2023-01-31T09:52:50.777Z,2.36
2023-01-31T09:56:15.935Z,2.36
2023-01-31T09:59:45.003Z,2.34
2023-01-31T10:03:55.282Z,2.33
2023-01-31T10:07:17.909Z,2.37
2023-01-31T10:10:42.050Z,2.33
2023-01-31T10:14:04.848Z,2.36
2023-01-31T10:17:26.460Z,2.32
2023-01-31T10:20:48.516Z,2.34
2023-01-31T10:24:12.006Z,2.40
2023-01-31T10:27:41.708Z,2.41
2023-01-31T10:31:03.734Z,2.35
2023-01-31T10:34:25.687Z,2.35
2023-01-31T10:37:49.165Z,2.38
2023-01-31T10:41:12.519Z,2.34
2023-01-31T10:44:38.617Z,2.39
2023-01-31T10:48:02.758Z,2.35
2023-01-31T10:51:30.803Z,2.42
2023-01-31T10:54:58.353Z,2.49
2023-01-31T10:58:23.035Z,2.50
2023-01-31T11:01:39.516Z,2.43
2023-01-31T11:04:59.723Z,2.46
2023-01-31T11:08:26.829Z,2.51
2023-01-31T11:11:49.356Z,2.53
2023-01-31T11:15:24.394Z,2.57
2023-01-31T11:18:46.007Z,2.58
2023-01-31T11:22:03.672Z,2.52
2023-01-31T11:25:29.388Z,2.54
2023-01-31T11:28:47.998Z,2.58
2023-01-31T11:32:07.638Z,2.61
2023-01-31T11:35:39.457Z,2.62
2023-01-31T11:38:56.340Z,2.66
2023-01-31T11:42:23.436Z,2.63
2023-01-31T11:45:42.808Z,2.66
2023-01-31T11:48:56.857Z,2.53
2023-01-31T11:52:24.857Z,2.53
2023-01-31T11:55:47.477Z,2.55
2023-01-31T11:59:10.687Z,2.49
2023-01-31T12:02:39.036Z,2.54
2023-01-31T12:06:11.506Z,2.54
2023-01-31T12:09:33.671Z,2.43
2023-01-31T12:12:52.458Z,2.29
2023-01-31T12:16:12.938Z,2.29
2023-01-31T12:19:40.910Z,2.38
2023-01-31T12:23:03.244Z,2.36
2023-01-31T12:26:27.317Z,2.39
2023-01-31T12:30:12.133Z,2.38
2023-01-31T12:33:58.987Z,2.41
2023-01-31T12:37:35.928Z,2.41
2023-01-31T12:40:58.136Z,2.49
2023-01-31T12:44:33.028Z,2.53
2023-01-31T12:48:38.422Z,2.49
2023-01-31T12:52:00.620Z,2.48
2023-01-31T12:55:29.979Z,2.47
2023-01-31T12:59:15.274Z,2.49
2023-01-31T13:02:45.768Z,2.53
2023-01-31T13:06:06.743Z,2.61
2023-01-31T13:09:29.134Z,2.72
2023-01-31T13:12:46.297Z,2.66
2023-01-31T13:16:07.415Z,2.71
2023-01-31T13:19:29.846Z,2.79
2023-01-31T13:22:50.660Z,2.78
2023-01-31T13:26:15.411Z,2.83
2023-01-31T13:29:36.852Z,2.83
2023-01-31T13:32:57.836Z,2.81
2023-01-31T13:39:36.285Z,2.66
2023-01-31T13:42:54.197Z,2.73
2023-01-31T13:46:15.147Z,2.75
2023-01-31T13:52:52.789Z,2.61
2023-01-31T13:56:14.588Z,2.64
2023-01-31T13:59:35.570Z,2.56
2023-01-31T14:03:07.307Z,2.51
2023-01-31T14:09:40.953Z,2.47
2023-01-31T14:12:57.403Z,2.49
2023-01-31T14:16:47.595Z,2.45
2023-01-31T14:20:27.004Z,2.49
2023-01-31T14:23:53.504Z,2.43
2023-01-31T14:27:15.116Z,2.47
2023-01-31T14:30:48.397Z,2.45
2023-01-31T14:37:26.647Z,2.42
2023-01-31T14:40:47.137Z,2.41
2023-01-31T14:44:13.965Z,2.34
2023-01-31T14:47:45.172Z,2.37
2023-01-31T14:54:37.852Z,2.24
2023-01-31T14:57:59.090Z,2.25
2023-01-31T15:01:18.251Z,2.26
2023-01-31T15:11:09.637Z,2.13
2023-01-31T15:14:46.374Z,2.19
2023-01-31T15:18:03.727Z,2.22
2023-01-31T15:21:29.308Z,2.05
2023-01-31T15:24:49.781Z,2.12
2023-01-31T15:28:09.118Z,2.00
2023-01-31T15:31:31.410Z,1.98
2023-01-31T15:38:09.413Z,1.82
2023-01-31T15:41:32.125Z,1.72
2023-01-31T15:44:49.229Z,1.79
2023-01-31T15:48:14.096Z,1.74
2023-01-31T15:51:31.677Z,1.64
2023-01-31T15:55:02.992Z,1.65
2023-01-31T15:58:26.260Z,1.67
2023-01-31T16:01:42.728Z,1.60
2023-01-31T16:04:59.867Z,1.54
2023-01-31T16:08:26.018Z,1.48
2023-01-31T16:11:43.859Z,1.54
2023-01-31T16:15:01.232Z,1.52
2023-01-31T16:18:20.910Z,1.53
2023-01-31T16:21:43.050Z,1.57
2023-01-31T16:25:08.366Z,1.58
2023-01-31T16:28:24.796Z,1.59
2023-01-31T16:31:45.481Z,1.65
2023-01-31T16:35:08.742Z,1.67
2023-01-31T16:38:32.156Z,1.58
2023-01-31T16:41:58.335Z,1.55
2023-01-31T16:45:36.709Z,1.44
2023-01-31T16:49:08.272Z,1.50
2023-01-31T16:52:38.317Z,1.43
2023-01-31T16:56:10.419Z,1.40
2023-01-31T16:59:56.447Z,1.39
2023-01-31T17:03:23.256Z,1.41
2023-01-31T17:06:40.680Z,1.44
2023-01-31T17:10:02.941Z,1.48
2023-01-31T17:13:26.614Z,1.43
2023-01-31T17:16:44.623Z,1.39
2023-01-31T17:20:02.351Z,1.26
2023-01-31T17:23:19.717Z,1.16
2023-01-31T17:26:39.089Z,1.11
2023-01-31T17:29:55.989Z,1.10
2023-01-31T17:33:12.830Z,1.05
2023-01-31T17:36:29.456Z,1.08
2023-01-31T17:39:45.923Z,1.10
2023-01-31T17:43:05.913Z,1.10
2023-01-31T17:46:25.022Z,1.10
2023-01-31T17:54:38.173Z,1.19
2023-01-31T17:57:56.300Z,1.22
2023-01-31T18:01:15.326Z,1.23
2023-01-31T18:04:32.093Z,1.31
2023-01-31T18:07:50.242Z,1.38
2023-01-31T18:11:13.205Z,1.44
2023-01-31T18:14:30.761Z,1.47
2023-01-31T18:17:47.141Z,1.44
2023-01-31T18:24:21.235Z,1.44
2023-01-31T18:27:38.811Z,1.48
2023-01-31T18:30:55.337Z,1.45
2023-01-31T18:34:15.317Z,1.50
2023-01-31T18:40:49.198Z,1.58
2023-01-31T18:44:06.130Z,1.59
2023-01-31T18:47:22.788Z,1.64
2023-01-31T18:50:39.401Z,1.68
2023-01-31T18:53:59.713Z,1.68
2023-01-31T18:57:19.074Z,1.70
2023-01-31T19:00:36.841Z,1.61
2023-01-31T19:03:56.157Z,1.63
2023-01-31T19:07:12.766Z,1.61
2023-01-31T19:10:30.525Z,1.58
2023-01-31T19:13:48.385Z,1.62
2023-01-31T19:17:06.139Z,1.56
2023-01-31T19:20:24.405Z,1.56
2023-01-31T19:23:40.768Z,1.48
2023-01-31T19:27:01.134Z,1.51
2023-01-31T19:30:21.131Z,1.56
2023-01-31T19:33:38.175Z,1.59
2023-01-31T19:36:55.298Z,1.57
2023-01-31T19:40:13.040Z,1.59
2023-01-31T19:43:29.308Z,1.68
2023-01-31T19:46:48.848Z,1.66
2023-01-31T19:54:55.902Z,1.65
2023-01-31T19:58:12.080Z,1.70
2023-01-31T20:01:29.314Z,1.75
2023-01-31T20:04:46.643Z,1.71
2023-01-31T20:08:03.054Z,1.76
2023-01-31T20:11:20.639Z,1.86
2023-01-31T20:14:37.340Z,1.83
2023-01-31T20:17:54.090Z,1.88
2023-01-31T20:21:11.077Z,1.87
2023-01-31T20:24:28.924Z,1.91
2023-01-31T20:27:45.427Z,1.97
2023-01-31T20:31:05.421Z,1.96
2023-01-31T20:34:21.811Z,2.01
2023-01-31T20:37:38.676Z,2.05
2023-01-31T20:41:00.917Z,2.07
2023-01-31T20:44:17.341Z,2.09
2023-01-31T20:47:34.070Z,2.13
2023-01-31T20:54:08.476Z,2.18
2023-01-31T20:57:25.533Z,2.25
2023-01-31T21:00:42.124Z,2.27
2023-01-31T21:03:58.457Z,2.24
2023-01-31T21:10:32.921Z,2.32
2023-01-31T21:13:49.969Z,2.31
2023-01-31T21:17:06.691Z,2.33
2023-01-31T21:25:48.038Z,2.35
2023-01-31T21:29:07.113Z,2.34
2023-01-31T21:32:23.668Z,2.37
2023-01-31T21:38:56.259Z,2.38
2023-01-31T21:42:22.305Z,2.43
2023-01-31T21:45:45.203Z,2.45
2023-01-31T21:49:02.165Z,2.42
2023-01-31T21:55:34.447Z,2.46
2023-01-31T21:58:51.155Z,2.39
2023-01-31T22:02:07.355Z,2.43
2023-01-31T22:05:24.762Z,2.47
2023-01-31T22:08:42.300Z,2.47
2023-01-31T22:11:59.125Z,2.50
2023-01-31T22:15:17.926Z,2.52
2023-01-31T22:18:34.670Z,2.53
2023-01-31T22:21:51.548Z,2.47
2023-01-31T22:25:07.851Z,2.51
2023-01-31T22:28:24.113Z,2.52
2023-01-31T22:31:41.778Z,2.56
2023-01-31T22:34:59.581Z,2.53
2023-01-31T22:38:16.373Z,2.58
2023-01-31T22:41:33.207Z,2.58
2023-01-31T22:44:49.374Z,2.57
2023-01-31T22:48:05.588Z,2.60
2023-01-31T22:54:37.482Z,2.63
2023-01-31T22:57:53.689Z,2.65
2023-01-31T23:01:12.840Z,2.67
2023-01-31T23:04:29.462Z,2.63
2023-01-31T23:07:46.986Z,2.59
2023-01-31T23:11:05.230Z,2.62
2023-01-31T23:14:21.574Z,2.62
2023-01-31T23:17:43.836Z,2.59
2023-01-31T23:24:19.743Z,2.50
2023-01-31T23:27:35.965Z,2.50
2023-01-31T23:30:52.203Z,2.37
2023-01-31T23:34:09.989Z,2.41
2023-01-31T23:37:30.140Z,2.37
2023-01-31T23:40:46.526Z,2.24
2023-01-31T23:44:02.840Z,2.24
2023-01-31T23:47:19.010Z,2.31
2023-01-31T23:50:35.782Z,2.35
2023-01-31T23:53:51.929Z,2.43
2023-01-31T23:57:09.170Z,2.45
